Have a Safe July 4th! 

Flight Track Log - Related Links

Times and Time Zones

All times are in EDT time to prevent confusion due to time zone crossing. See the SKW5162 flight status page for this flight to view local times or setup timezone preferences in your user account.

Time Position Orientation Groundspeed Altitude Reporting Facility
EDT Latitude Longitude Course Direction KTS MPH feet Rate Location/Type
Wed 06:18:00 AM 40.4983 -80.3592 267° West 201 231 3,700  Level Cleveland Center
Wed 06:19:00 AM 40.4667 -80.6291 270° West  Level FlightAware Approximate
Wed 06:19:00 AM 40.4922 -80.4411 264° West 201 231 5,900  Level Cleveland Center
Wed 06:20:00 AM 40.4667 -80.7674 270° West  Level FlightAware Approximate
Wed 06:20:00 AM 40.4903 -80.5339 268° West 230 265 8,400  Level Cleveland Center
Wed 06:21:00 AM 40.4667 -80.9056 270° West  Level FlightAware Approximate
Wed 06:21:00 AM 40.4861 -80.6294 267° West 252 290 10,300  Level Cleveland Center
Wed 06:22:00 AM 40.4667 -81.0439 270° West  Level FlightAware Approximate
Wed 06:22:00 AM 40.4797 -80.7358 266° West 291 335 11,200  Level Cleveland Center
Wed 06:23:00 AM 40.4640 -81.1821 267° West  Level FlightAware Approximate
Wed 06:23:00 AM 40.4711 -80.8586 265° West 322 371 12,900  Level Cleveland Center
Wed 06:24:00 AM 40.4708 -80.9869 270° West 345 397 14,500 1,550 Climbing Cleveland Center
Wed 06:25:00 AM 40.4703 -81.1208 270° West 361 415 16,000 1,648 Climbing Cleveland Center
Wed 06:27:13 AM 40.4642 -81.4375 269° West 376 433 19,800 1,670 Climbing Indianapolis Center
Wed 06:28:14 AM 40.4639 -81.5767 270° West 377 434 21,400 1,289 Climbing Indianapolis Center
Wed 06:29:14 AM 40.4619 -81.7186 269° West 384 442 22,400 1,041 Climbing Indianapolis Center
Wed 06:30:15 AM 40.4608 -81.8664 269° West 397 457 23,500 1,033 Climbing Indianapolis Center
Wed 06:31:16 AM 40.4489 -82.0133 264° West 407 468 24,500 984 Climbing Indianapolis Center
Wed 06:32:17 AM 40.3967 -82.1467 243° Southwest 410 472 25,500 992 Climbing Indianapolis Center
Wed 06:33:17 AM 40.3431 -82.2806 242° Southwest 411 473 26,500 992 Climbing Indianapolis Center
Wed 06:34:18 AM 40.2886 -82.4156 242° Southwest 413 475 27,500 934 Climbing Indianapolis Center
Wed 06:35:19 AM 40.2417 -82.5303 242° Southwest 414 476 28,400 893 Climbing Indianapolis Center
Wed 06:36:19 AM 40.1864 -82.6656 242° Southwest 417 480 29,300 843 Climbing Indianapolis Center
Wed 06:37:20 AM 40.1311 -82.8006 242° Southwest 419 482 30,100 787 Climbing Indianapolis Center
Wed 06:38:21 AM 40.0758 -82.9358 242° Southwest 418 481 30,900 793 Climbing Indianapolis Center
Wed 06:39:21 AM 40.0192 -83.0719 242° Southwest 422 486 31,700 843 Climbing Indianapolis Center
Wed 06:40:22 AM 39.9636 -83.2064 242° Southwest 420 483 32,600 836 Climbing Indianapolis Center
Wed 06:41:23 AM 39.9078 -83.3425 242° Southwest 423 487 33,400 787 Climbing Indianapolis Center
Wed 06:42:24 AM 39.8506 -83.4792 241° Southwest 421 484 34,200 843 Climbing Indianapolis Center
Wed 06:43:24 AM 39.7900 -83.6208 241° Southwest 417 480 35,100 843 Climbing Indianapolis Center
Wed 06:44:25 AM 39.7364 -83.7489 241° Southwest 405 466 35,900 443 Climbing Indianapolis Center
Wed 06:45:26 AM 39.6822 -83.8769 241° Southwest 401 461 36,000 49 Climbing Indianapolis Center
Wed 06:46:27 AM 39.6264 -84.0094 241° Southwest 412 474 36,000  Level Indianapolis Center
Wed 06:47:27 AM 39.5681 -84.1447 241° Southwest 423 487 36,000  Level Indianapolis Center
Wed 06:48:28 AM 39.5103 -84.2814 241° Southwest 428 493 36,000 344 Level Indianapolis Center
Wed 06:49:29 AM 39.4525 -84.4147 241° Southwest 424 488 36,700 689 Climbing Indianapolis Center
Wed 06:50:30 AM 39.3956 -84.5458 241° Southwest 415 478 37,400 645 Climbing Indianapolis Center
Wed 06:51:30 AM 39.3406 -84.6725 241° Southwest 403 464 38,000 298 Climbing Indianapolis Center
Wed 06:52:31 AM 39.2853 -84.7994 241° Southwest 402 463 38,000  Level Indianapolis Center
Wed 06:53:32 AM 39.2314 -84.9231 241° Southwest 405 466 38,000  Level Indianapolis Center
Wed 06:54:33 AM 39.1742 -85.0528 240° Southwest 414 476 38,000  Level Indianapolis Center
Wed 06:55:34 AM 39.1161 -85.1833 240° Southwest 419 482 38,000  Level Indianapolis Center
Wed 06:56:34 AM 39.0581 -85.3147 240° Southwest 422 486 38,000  Level Indianapolis Center
Wed 06:57:35 AM 38.9986 -85.4478 240° Southwest 426 490 38,000  Level Indianapolis Center
Wed 06:58:36 AM 38.9392 -85.5794 240° Southwest 427 491 38,000  Level Indianapolis Center
Wed 06:59:37 AM 38.8797 -85.7131 240° Southwest 429 494 38,000  Level Indianapolis Center
Wed 07:00:38 AM 38.8194 -85.8456 240° Southwest 429 494 38,000  Level Indianapolis Center
Wed 07:01:39 AM 38.7500 -85.9994 240° Southwest 430 495 38,000  Level Indianapolis Center
Wed 07:02:40 AM 38.6892 -86.1311 239° Southwest 429 494 38,000  Level Indianapolis Center
Wed 07:03:40 AM 38.6300 -86.2631 240° Southwest 426 490 38,000  Level Indianapolis Center
Wed 07:04:41 AM 38.5689 -86.3950 239° Southwest 427 491 38,000  Level Indianapolis Center
Wed 07:05:42 AM 38.5097 -86.5250 240° Southwest 424 488 38,000  Level Indianapolis Center
Wed 07:06:43 AM 38.4458 -86.6519 237° Southwest 423 487 38,000  Level Indianapolis Center
Wed 07:07:44 AM 38.3819 -86.7772 237° Southwest 419 482 38,000  Level Indianapolis Center
Wed 07:08:45 AM 38.3175 -86.9011 236° Southwest 415 478 38,000  Level Indianapolis Center
Wed 07:09:46 AM 38.2542 -87.0275 237° Southwest 418 481 38,000  Level Indianapolis Center
Wed 07:10:47 AM 38.1914 -87.1508 237° Southwest 416 479 38,000  Level Indianapolis Center
Wed 07:11:48 AM 38.1222 -87.2825 236° Southwest 416 479 38,000  Level Indianapolis Center
Wed 07:12:49 AM 38.0592 -87.4053 237° Southwest 414 476 38,000  Level Indianapolis Center
Wed 07:13:50 AM 37.9953 -87.5272 236° Southwest 413 475 38,000  Level Indianapolis Center
Wed 07:14:51 AM 37.9319 -87.6489 237° Southwest 412 474 38,000  Level Indianapolis Center
Wed 07:15:52 AM 37.8678 -87.7703 236° Southwest 412 474 38,000  Level Indianapolis Center
Wed 07:16:53 AM 37.8047 -87.8906 236° Southwest 410 472 38,000  Level Indianapolis Center
Wed 07:17:54 AM 37.7328 -88.0267 236° Southwest 413 475 38,000  Level Indianapolis Center
Wed 07:18:55 AM 37.6681 -88.1481 236° Southwest 413 475 38,000  Level Indianapolis Center
Wed 07:19:56 AM 37.6111 -88.2547 236° Southwest 415 478 38,000  Level Indianapolis Center
Wed 07:20:58 AM 37.5417 -88.3692 233° Southwest 410 472 38,000  Level Indianapolis Center
Wed 07:21:59 AM 37.4539 -88.4889 227° Southwest 409 471 38,000  Level Indianapolis Center
Wed 07:23:00 AM 37.3725 -88.6011 228° Southwest 407 468 38,000  Level Indianapolis Center
Wed 07:23:56 AM 37.3144 -88.6931 232° Southwest 411 473 38,000  Level Memphis Center
Wed 07:24:56 AM 37.2408 -88.7961 228° Southwest 406 467 38,000  Level Memphis Center
Wed 07:25:56 AM 37.1650 -88.9019 228° Southwest 406 467 38,000  Level Memphis Center
Wed 07:26:56 AM 37.0892 -89.0047 227° Southwest 406 467 38,000  Level Memphis Center
Wed 07:27:56 AM 37.0153 -89.1097 229° Southwest 406 467 38,000  Level Memphis Center
Wed 07:28:56 AM 36.9392 -89.2122 227° Southwest 406 467 38,000  Level Memphis Center
Wed 07:29:56 AM 36.8628 -89.3169 228° Southwest 406 467 38,000  Level Memphis Center
Wed 07:30:56 AM 36.7886 -89.4217 229° Southwest 406 467 38,000  Level Memphis Center
Wed 07:31:56 AM 36.7122 -89.5261 228° Southwest 406 467 38,000  Level Memphis Center
Wed 07:32:56 AM 36.6358 -89.6303 228° Southwest 406 467 38,000  Level Memphis Center
Wed 07:33:56 AM 36.5572 -89.7344 227° Southwest 411 473 38,000  Level Memphis Center
Wed 07:34:56 AM 36.4806 -89.8331 226° Southwest 411 473 38,000  Level Memphis Center
Wed 07:35:56 AM 36.4058 -89.9342 227° Southwest 411 473 38,000  Level Memphis Center
Wed 07:36:56 AM 36.3311 -90.0350 227° Southwest 406 467 38,000  Level Memphis Center
Wed 07:37:56 AM 36.2564 -90.1356 227° Southwest 400 460 38,000  Level Memphis Center
Wed 07:38:56 AM 36.1836 -90.2336 227° Southwest 395 455 38,000  Level Memphis Center
Wed 07:39:56 AM 36.1086 -90.3314 227° Southwest 395 455 38,000  Level Memphis Center
Wed 07:40:56 AM 36.0356 -90.4264 226° Southwest 395 455 38,000  Level Memphis Center
Wed 07:41:56 AM 35.9647 -90.5211 227° Southwest 395 455 38,000  Level Memphis Center
Wed 07:42:56 AM 35.8914 -90.6158 226° Southwest 395 455 38,000  Level Memphis Center
Wed 07:43:56 AM 35.8203 -90.7103 227° Southwest 395 455 38,000  Level Memphis Center
Wed 07:44:56 AM 35.7492 -90.8047 227° Southwest 395 455 38,000  Level Memphis Center
Wed 07:45:56 AM 35.6717 -90.9117 228° Southwest 389 448 38,000  Level Memphis Center
Wed 07:46:56 AM 35.5981 -91.0081 227° Southwest 382 440 38,000  Level Memphis Center
Wed 07:47:56 AM 35.5267 -91.0994 226° Southwest 382 440 38,000  Level Memphis Center
Wed 07:48:56 AM 35.4553 -91.1931 227° Southwest 376 433 38,000  Level Memphis Center
Wed 07:49:56 AM 35.3919 -91.2689 224° Southwest 367 422 38,000  Level Memphis Center
Wed 07:50:56 AM 35.3225 -91.3572 226° Southwest 367 422 38,000  Level Memphis Center
Wed 07:51:56 AM 35.2531 -91.4478 227° Southwest 372 428 38,000  Level Memphis Center
Wed 07:52:56 AM 35.1833 -91.5358 226° Southwest 366 421 38,000  Level Memphis Center
Wed 07:53:56 AM 35.1136 -91.6264 227° Southwest 371 427 38,000  Level Memphis Center
Wed 07:54:56 AM 35.0439 -91.7114 225° Southwest 366 421 38,000  Level Memphis Center
Wed 07:55:56 AM 34.9781 -91.8042 229° Southwest 371 427 38,000  Level Memphis Center
Wed 07:56:56 AM 34.9061 -91.8917 225° Southwest 371 427 38,000  Level Memphis Center
Wed 07:57:56 AM 34.8342 -91.9814 226° Southwest 371 427 38,000  Level Memphis Center
Wed 07:58:56 AM 34.7683 -92.0661 227° Southwest 365 420 38,000  Level Memphis Center
Wed 07:59:56 AM 34.6919 -92.1531 223° Southwest 370 426 38,000  Level Memphis Center
Wed 08:00:56 AM 34.5953 -92.1964 200° South 365 420 38,000  Level Memphis Center
Wed 08:01:56 AM 34.4928 -92.2119 187° South 360 414 38,000  Level Memphis Center
Wed 08:02:56 AM 34.3883 -92.2347 190° South 372 428 38,000  Level Memphis Center
Wed 08:03:56 AM 34.2836 -92.2525 188° South 377 434 38,000  Level Memphis Center
Wed 08:06:08 AM 34.0483 -92.3000 189° South 372 428 38,000  Level Fort Worth Center
Wed 08:07:08 AM 33.9406 -92.3214 189° South 392 451 38,000  Level Fort Worth Center
Wed 08:08:08 AM 33.8350 -92.3400 188° South 392 451 38,000  Level Fort Worth Center
Wed 08:09:08 AM 33.7250 -92.3564 187° South 392 451 38,000  Level Fort Worth Center
Wed 08:10:08 AM 33.6153 -92.3778 189° South 392 451 38,000  Level Fort Worth Center
Wed 08:11:08 AM 33.5097 -92.3964 188° South 392 451 38,000  Level Fort Worth Center
Wed 08:12:08 AM 33.3978 -92.4175 189° South 399 459 38,000  Level Fort Worth Center
Wed 08:13:08 AM 33.3025 -92.4353 189° South 399 459 38,000  Level Fort Worth Center
Wed 08:14:08 AM 33.1947 -92.4539 188° South 399 459 38,000  Level Fort Worth Center
Wed 08:15:08 AM 33.0808 -92.4750 189° South 412 474 38,000  Level Fort Worth Center
Wed 08:16:08 AM 32.9689 -92.4936 188° South 412 474 38,000  Level Fort Worth Center
Wed 08:17:51 AM 32.7742 -92.5336 190° South 409 471 38,000  Level Houston Center
Wed 08:18:52 AM 32.6625 -92.5522 188° South 409 471 38,000  Level Houston Center
Wed 08:19:53 AM 32.5511 -92.5725 189° South 411 473 38,000  Level Houston Center
Wed 08:20:55 AM 32.4383 -92.5928 189° South 413 475 38,000 49 Level Houston Center
Wed 08:21:56 AM 32.3233 -92.6153 189° South 415 478 38,100  Climbing Houston Center
Wed 08:22:58 AM 32.1858 -92.6372 188° South 420 483 38,000 -49 Descending Houston Center
Wed 08:23:59 AM 32.0706 -92.6564 188° South 419 482 38,000  Level Houston Center
Wed 08:25:01 AM 31.9600 -92.6928 196° South 418 481 38,000  Level Houston Center
Wed 08:26:02 AM 31.8686 -92.7719 216° Southwest 410 472 38,000  Level Houston Center
Wed 08:27:04 AM 31.7828 -92.8614 222° Southwest 410 472 38,000  Level Houston Center
Wed 08:28:05 AM 31.6942 -92.9458 219° Southwest 411 473 38,000  Level Houston Center
Wed 08:29:07 AM 31.6067 -93.0331 220° Southwest 412 474 38,000  Level Houston Center
Wed 08:30:08 AM 31.5181 -93.1175 219° Southwest 411 473 38,000  Level Houston Center
Wed 08:31:10 AM 31.4114 -93.2200 219° Southwest 414 476 38,000  Level Houston Center
Wed 08:32:11 AM 31.3147 -93.2839 209° Southwest 414 476 38,000 -537 Level Houston Center
Wed 08:33:13 AM 31.1956 -93.2819 179° South 417 480 36,900 -1,113 Descending Houston Center
Wed 08:34:15 AM 31.0806 -93.2717 176° South 415 478 35,700 -1,317 Descending Houston Center
Wed 08:35:16 AM 30.9608 -93.2681 179° South 420 483 34,200 -1,707 Descending Houston Center
Wed 08:36:18 AM 30.8578 -93.3286 207° Southwest 432 497 32,200 -1,935 Descending Houston Center
Wed 08:37:20 AM 30.7867 -93.4342 232° Southwest 421 484 30,200 -2,000 Descending Houston Center
Wed 08:38:21 AM 30.7131 -93.5528 234° Southwest 383 441 28,100 -1,854 Descending Houston Center
Wed 08:39:23 AM 30.6558 -93.6425 233° Southwest 354 407 26,400 -1,597 Descending Houston Center
Wed 08:40:25 AM 30.6008 -93.7283 233° Southwest 337 388 24,800 -1,645 Descending Houston Center
Wed 08:41:27 AM 30.5447 -93.8172 234° Southwest 343 395 23,000 -1,756 Descending Houston Center
Wed 08:42:28 AM 30.4842 -93.9131 234° Southwest 363 418 21,200 -2,067 Descending Houston Center
Wed 08:42:57 AM 30.4453 -93.9756 234° Southwest 382 440 19,900 -2,323 Descending Houston Center
Wed 08:43:30 AM 30.4117 -94.0272 233° Southwest 371 427 18,800 -1,958 Descending Houston Center
Wed 08:44:32 AM 30.3550 -94.1161 234° Southwest 352 405 16,800 -1,854 Descending Houston Center
Wed 08:45:33 AM 30.3014 -94.2011 234° Southwest 330 380 15,000 -1,659 Descending Houston Center
Wed 08:46:35 AM 30.2481 -94.2836 233° Southwest 322 371 13,400 -1,452 Descending Houston Center
Wed 08:47:37 AM 30.1983 -94.3731 237° Southwest 328 377 12,000 -1,306 Descending Houston Center
Wed 08:48:39 AM 30.1792 -94.4692 257° West 307 353 10,700 -1,306 Descending Houston Center
Wed 08:49:41 AM 30.1639 -94.5633 259° West 277 319 9,300 -1,220 Descending Houston Center
Wed 08:50:42 AM 30.1500 -94.6447 259° West 262 302 8,200 -1,024 Descending Houston Center
Wed 08:51:44 AM 30.1353 -94.7297 259° West 270 311 7,200 -844 Descending Houston Center
Wed 08:52:57 AM 30.1147 -94.8467 259° West 268 308 6,300 -581 Descending Houston Center
Wed 08:53:48 AM 30.1053 -94.9136 261° West 263 303 6,000 -159 Descending Houston Center
Wed 08:54:50 AM 30.1064 -94.9969 271° West 260 299 6,000  Level Houston Center
Wed 08:55:52 AM 30.1072 -95.0800 271° West 260 299 6,000  Level Houston Center
Wed 08:56:53 AM 30.1075 -95.1575 270° West 247 284 6,000  Level Houston Center
Wed 08:57:56 AM 30.1069 -95.2306 270° West 232 267 6,000  Level Houston Center
Wed 08:58:57 AM 30.1069 -95.3144 270° West 220 253 6,000 49 Level Houston Center
Wed 08:59:59 AM 30.1067 -95.3889 270° West 223 257 6,100 -244 Climbing Houston Center
Wed 09:01:00 AM 30.1069 -95.4611 270° West 225 259 5,500 -885 Descending Houston Center
Wed 09:02:01 AM 30.1069 -95.5314 270° West 224 258 4,300 -1,180 Descending Houston Center
Wed 09:03:02 AM 30.1069 -95.6014 270° West 211 243 3,100 -639 Descending Houston Center
Wed 09:04:03 AM 30.1072 -95.6761 270° West 215 247 3,000 -48 Descending Houston Center
Wed 09:05:08 AM 30.1006 -95.7458 264° West 218 251 3,000  Level Houston Center
Wed 09:06:06 AM 30.0450 -95.7558 189° South 211 243 3,000  Level Houston Center
Wed 09:07:07 AM 30.0072 -95.7072 132° Southeast 222 255 3,000  Level Houston Center
Wed 09:08:13 AM 30.0050 -95.6467 92° East 201 231 3,000  Level Houston Center
Wed 09:09:10 AM 30.0069 -95.5867 88° East 178 205 3,000  Level Houston Center
Wed 09:10:11 AM 30.0058 -95.5289 91° East 183 211 3,000 -492 Level Houston Center
Wed 09:11:12 AM 30.0067 -95.4683 89° East 176 203 2,000 -984 Descending Houston Center

Login

Don't have an account? Register now (free) for customized features, flight alerts, and more!